createdAt,value
2019-02-14T04:53:39.585Z,102623.27
2019-02-14T04:56:10.196Z,102621.91
2019-02-14T04:58:40.619Z,102629.85
2019-02-14T05:01:11.053Z,102629.95
2019-02-14T05:03:41.483Z,102636.66
2019-02-14T05:06:12.013Z,102634.34
2019-02-14T05:08:42.413Z,102636.95
2019-02-14T05:11:12.867Z,102639.22
2019-02-14T05:13:43.300Z,102643.97
2019-02-14T05:16:13.699Z,102637.58
2019-02-14T05:18:44.152Z,102630.59
2019-02-14T05:21:14.579Z,102637.22
2019-02-14T05:23:44.970Z,102643.64
2019-02-14T05:26:15.421Z,102649.91
2019-02-14T05:28:45.818Z,102649.35
2019-02-14T05:31:16.281Z,102637.73
2019-02-14T05:33:46.687Z,102642.95
2019-02-14T05:36:17.083Z,102644.61
2019-02-14T05:38:47.480Z,102647.65
2019-02-14T05:41:17.883Z,102653.91
2019-02-14T05:43:48.279Z,102654.53
2019-02-14T05:46:18.762Z,102662.14
2019-02-14T05:48:49.198Z,102657.02
2019-02-14T05:51:19.613Z,102659.72
2019-02-14T05:53:50.144Z,102661.72
2019-02-14T05:56:20.676Z,102664.81
2019-02-14T05:58:51.108Z,102664.79
2019-02-14T06:01:21.638Z,102661.08
2019-02-14T06:03:52.072Z,102663.87
2019-02-14T06:06:22.606Z,102675.61
2019-02-14T06:08:52.991Z,102679.78
2019-02-14T06:11:23.389Z,102688.23
2019-02-14T06:13:53.780Z,102688.10
2019-02-14T06:16:24.183Z,102699.61
2019-02-14T06:18:54.584Z,102704.13
2019-02-14T06:21:24.994Z,102708.55
2019-02-14T06:23:55.398Z,102706.38
2019-02-14T06:26:25.793Z,102711.52
2019-02-14T06:28:56.198Z,102711.37
2019-02-14T06:31:26.599Z,102720.36
2019-02-14T06:33:57.000Z,102727.47
2019-02-14T06:36:27.399Z,102728.38
2019-02-14T06:38:57.879Z,102718.17
2019-02-14T06:41:28.292Z,102729.88
2019-02-14T06:43:58.695Z,102733.55
2019-02-14T06:46:29.099Z,102734.00
2019-02-14T06:48:59.513Z,102735.36
2019-02-14T06:51:29.911Z,102739.22
2019-02-14T06:54:00.315Z,102744.34
2019-02-14T06:56:30.707Z,102737.91
2019-02-14T06:59:01.091Z,102735.68
2019-02-14T07:01:31.477Z,102736.86
2019-02-14T07:04:01.933Z,102741.66
2019-02-14T07:06:32.342Z,102737.14
2019-02-14T07:09:03.261Z,102744.62
2019-02-14T07:11:33.666Z,102745.11
2019-02-14T07:14:04.363Z,102740.26
2019-02-14T07:16:34.898Z,102740.86
2019-02-14T07:19:06.557Z,102742.03
2019-02-14T07:21:36.997Z,102736.86
2019-02-14T07:24:07.617Z,102739.77
2019-02-14T07:26:38.102Z,102737.44
2019-02-14T07:29:09.600Z,102738.66
2019-02-14T07:31:40.029Z,102749.13
2019-02-14T07:34:10.428Z,102742.01
2019-02-14T07:36:40.830Z,102741.15
2019-02-14T07:39:11.256Z,102735.08
2019-02-14T07:41:41.658Z,102737.92
2019-02-14T07:44:12.078Z,102736.25
2019-02-14T07:46:42.795Z,102753.77
2019-02-14T07:49:13.195Z,102756.81
2019-02-14T07:51:43.966Z,102759.17
2019-02-14T07:54:14.368Z,102769.61
2019-02-14T07:56:44.816Z,102764.33
2019-02-14T07:59:15.218Z,102771.28
2019-02-14T08:01:45.627Z,102774.50
2019-02-14T08:04:16.312Z,102786.98
2019-02-14T08:06:46.855Z,102794.47
2019-02-14T08:09:17.250Z,102799.63
2019-02-14T08:11:47.650Z,102805.08
2019-02-14T08:14:18.055Z,102789.20
2019-02-14T08:16:48.461Z,102776.95
2019-02-14T08:19:18.983Z,102775.63
2019-02-14T08:21:49.412Z,102780.21
2019-02-14T08:24:20.888Z,102779.70
2019-02-14T08:26:51.275Z,102777.06
2019-02-14T08:29:21.714Z,102775.79
2019-02-14T08:31:52.116Z,102770.72
2019-02-14T08:34:22.566Z,102771.32
2019-02-14T08:36:53.095Z,102771.16
2019-02-14T08:39:23.489Z,102772.94
2019-02-14T08:41:56.826Z,102777.04
2019-02-14T08:44:27.257Z,102788.36
2019-02-14T08:46:57.786Z,102791.09
2019-02-14T08:49:28.258Z,102803.64
2019-02-14T08:51:58.677Z,102793.55
2019-02-14T08:54:30.229Z,102798.92
2019-02-14T08:57:01.782Z,102780.00
2019-02-14T08:59:32.480Z,102777.09
2019-02-14T09:02:02.871Z,102772.52
2019-02-14T09:04:33.538Z,102765.81
2019-02-14T09:07:03.971Z,102748.33
2019-02-14T09:09:34.405Z,102747.95
2019-02-14T09:12:04.825Z,102749.64
2019-02-14T09:14:35.229Z,102756.57
2019-02-14T09:17:05.694Z,102754.24
2019-02-14T09:19:36.082Z,102750.02
2019-02-14T09:22:06.465Z,102743.82
2019-02-14T09:24:36.972Z,102739.59
2019-02-14T09:27:07.397Z,102734.14
2019-02-14T09:29:39.427Z,102748.90
2019-02-14T09:32:09.847Z,102749.14
2019-02-14T09:34:40.281Z,102751.73
2019-02-14T09:37:12.247Z,102750.24
2019-02-14T09:39:42.779Z,102754.86
2019-02-14T09:42:13.180Z,102763.01
2019-02-14T09:44:43.732Z,102759.30
2019-02-14T09:47:14.138Z,102759.51
2019-02-14T09:49:44.543Z,102762.36
2019-02-14T09:52:15.030Z,102762.92
2019-02-14T09:54:45.447Z,102774.84
2019-02-14T09:57:15.884Z,102784.70
2019-02-14T09:59:46.426Z,102784.06
2019-02-14T10:02:16.940Z,102786.20
2019-02-14T10:04:47.413Z,102787.82
2019-02-14T10:07:17.915Z,102791.57
2019-02-14T10:09:48.328Z,102791.79
2019-02-14T10:12:18.764Z,102797.88
2019-02-14T10:14:50.309Z,102794.70
2019-02-14T10:17:22.413Z,102789.20
2019-02-14T10:19:53.077Z,102788.95
2019-02-14T10:22:23.531Z,102782.54
2019-02-14T10:24:53.965Z,102780.25
2019-02-14T10:27:24.363Z,102785.65
2019-02-14T10:29:54.818Z,102784.42
2019-02-14T10:32:25.345Z,102777.53
2019-02-14T10:34:55.781Z,102770.06
2019-02-14T10:37:26.188Z,102768.20
2019-02-14T10:39:56.630Z,102766.83
2019-02-14T10:42:27.060Z,102770.84
2019-02-14T10:44:57.497Z,102764.59
2019-02-14T10:47:28.027Z,102768.87
2019-02-14T10:49:58.557Z,102777.62
2019-02-14T10:52:30.011Z,102778.86
2019-02-14T10:55:00.494Z,102779.56
2019-02-14T10:57:30.957Z,102780.00
2019-02-14T11:00:01.801Z,102769.47
2019-02-14T11:02:32.230Z,102771.88
2019-02-14T11:05:02.759Z,102773.50
2019-02-14T11:07:33.236Z,102771.46
2019-02-14T11:10:04.577Z,102763.59
2019-02-14T11:12:34.971Z,102767.70
2019-02-14T11:15:11.235Z,102759.12
2019-02-14T11:17:41.636Z,102753.98
2019-02-14T11:20:13.887Z,102756.05
2019-02-14T11:22:44.365Z,102761.05
2019-02-14T11:25:32.864Z,102761.14
2019-02-14T11:28:03.259Z,102761.63
2019-02-14T11:30:33.731Z,102765.16
2019-02-14T11:33:04.193Z,102764.88
2019-02-14T11:35:34.839Z,102775.09
2019-02-14T11:38:05.234Z,102782.68
2019-02-14T11:40:38.967Z,102782.80
2019-02-14T11:43:09.376Z,102792.87
2019-02-14T11:45:39.832Z,102782.71
2019-02-14T11:48:10.253Z,102780.77
2019-02-14T11:50:40.783Z,102778.25
2019-02-14T11:53:14.236Z,102775.22
2019-02-14T11:55:43.476Z,102774.42
2019-02-14T11:58:14.007Z,102774.50
2019-02-14T12:00:44.537Z,102784.48
2019-02-14T12:03:14.972Z,102780.77
2019-02-14T12:05:45.393Z,102785.17
2019-02-14T12:08:15.824Z,102789.86
2019-02-14T12:10:46.256Z,102794.00
2019-02-14T12:13:16.675Z,102794.38
2019-02-14T12:15:47.110Z,102800.36
2019-02-14T12:18:17.639Z,102807.92
2019-02-14T12:20:48.081Z,102801.10
2019-02-14T12:23:19.553Z,102803.61
2019-02-14T12:25:50.053Z,102796.88
2019-02-14T12:28:21.198Z,102801.92
2019-02-14T12:30:52.999Z,102807.08
2019-02-14T12:33:23.493Z,102801.31
2019-02-14T12:35:53.900Z,102804.39
2019-02-14T12:38:24.345Z,102799.07
2019-02-14T12:40:54.873Z,102791.73
2019-02-14T12:43:25.307Z,102791.08
2019-02-14T12:45:55.725Z,102790.22
2019-02-14T12:48:26.157Z,102782.83
2019-02-14T12:50:56.593Z,102784.12
2019-02-14T12:53:27.118Z,102788.53
2019-02-14T12:55:57.511Z,102793.58
2019-02-14T12:58:27.970Z,102794.31
2019-02-14T13:00:58.403Z,102788.75
2019-02-14T13:03:28.936Z,102774.05
2019-02-14T13:05:59.357Z,102768.59
2019-02-14T13:08:29.999Z,102769.83
2019-02-14T13:11:00.397Z,102767.42
2019-02-14T13:13:30.850Z,102764.77
2019-02-14T13:16:01.281Z,102768.83
2019-02-14T13:18:31.911Z,102774.11
2019-02-14T13:21:02.314Z,102768.03
2019-02-14T13:23:32.763Z,102764.26
2019-02-14T13:26:03.162Z,102750.19
2019-02-14T13:28:33.630Z,102754.91
2019-02-14T13:31:04.106Z,102755.77
2019-02-14T13:33:34.576Z,102752.37
2019-02-14T13:36:06.028Z,102753.55
2019-02-14T13:38:36.465Z,102760.77
2019-02-14T13:41:06.864Z,102764.02
2019-02-14T13:43:37.321Z,102759.86
2019-02-14T13:46:07.745Z,102759.80
2019-02-14T13:48:38.178Z,102754.59
2019-02-14T13:51:08.574Z,102762.28
2019-02-14T13:53:39.127Z,102752.34
2019-02-14T13:56:09.521Z,102746.53
2019-02-14T13:58:39.992Z,102749.93
2019-02-14T14:01:10.548Z,102745.17
2019-02-14T14:03:41.073Z,102739.75
2019-02-14T14:06:11.587Z,102740.14
2019-02-14T14:08:42.051Z,102738.08
2019-02-14T14:11:12.494Z,102750.09
2019-02-14T14:13:42.970Z,102750.49
2019-02-14T14:16:13.401Z,102747.58
2019-02-14T14:18:44.855Z,102756.97
2019-02-14T14:21:15.275Z,102745.66
2019-02-14T14:23:45.705Z,102746.05
2019-02-14T14:26:16.137Z,102747.03
2019-02-14T14:28:46.558Z,102742.19
2019-02-14T14:31:16.981Z,102750.02
2019-02-14T14:33:47.522Z,102747.39
2019-02-14T14:36:17.954Z,102750.85
2019-02-14T14:38:48.372Z,102754.53
2019-02-14T14:41:18.903Z,102758.15
2019-02-14T14:43:50.969Z,102762.27
2019-02-14T14:46:23.013Z,102761.03
2019-02-14T14:48:53.678Z,102748.80
2019-02-14T14:51:24.099Z,102750.76
2019-02-14T14:53:54.498Z,102748.51
2019-02-14T14:56:25.064Z,102749.94
2019-02-14T14:58:55.495Z,102753.20
2019-02-14T15:01:26.129Z,102759.73
2019-02-14T15:03:56.555Z,102755.71
2019-02-14T15:06:27.115Z,102755.39
2019-02-14T15:08:57.505Z,102747.30
2019-02-14T15:11:28.047Z,102747.66
2019-02-14T15:13:58.471Z,102748.19
2019-02-14T15:16:28.868Z,102743.17
2019-02-14T15:18:59.268Z,102745.70
2019-02-14T15:21:29.757Z,102738.33
2019-02-14T15:24:00.143Z,102733.09
2019-02-14T15:26:30.606Z,102733.21
2019-02-14T15:29:01.145Z,102734.64
2019-02-14T15:31:31.782Z,102737.75
2019-02-14T15:34:02.182Z,102734.70
2019-02-14T15:36:33.655Z,102736.82
2019-02-14T15:39:04.868Z,102741.66
2019-02-14T15:41:35.279Z,102741.55
2019-02-14T15:44:05.748Z,102740.42
2019-02-14T15:46:37.003Z,102743.72
2019-02-14T15:49:07.398Z,102742.52
2019-02-14T15:51:39.427Z,102746.06
2019-02-14T15:54:11.806Z,102747.94
2019-02-14T15:56:42.406Z,102746.52
2019-02-14T15:59:12.802Z,102749.59
2019-02-14T16:01:44.396Z,102746.23
2019-02-14T16:04:14.942Z,102758.39
2019-02-14T16:06:45.467Z,102751.53
2019-02-14T16:09:16.629Z,102753.63
2019-02-14T16:11:47.223Z,102759.13
2019-02-14T16:14:20.868Z,102760.12
2019-02-14T16:16:50.895Z,102763.17
2019-02-14T16:19:21.384Z,102763.22
2019-02-14T16:21:53.720Z,102760.22
2019-02-14T16:24:23.983Z,102755.37
2019-02-14T16:26:54.386Z,102760.44
2019-02-14T16:29:27.101Z,102760.42
2019-02-14T16:31:57.047Z,102762.91
2019-02-14T16:34:28.511Z,102763.72
2019-02-14T16:36:58.906Z,102763.72
2019-02-14T16:39:29.686Z,102759.06
2019-02-14T16:42:00.077Z,102762.11
2019-02-14T16:44:30.469Z,102761.69
2019-02-14T16:47:01.008Z,102760.62
2019-02-14T16:49:31.440Z,102757.95
2019-02-14T16:52:01.859Z,102756.29
2019-02-14T16:54:32.291Z,102757.70
2019-02-14T16:57:02.728Z,102756.36
2019-02-14T16:59:33.181Z,102755.05
2019-02-14T17:02:03.675Z,102756.16
2019-02-14T17:04:34.065Z,102755.20
2019-02-14T17:07:04.636Z,102759.06
2019-02-14T17:09:35.070Z,102765.00
2019-02-14T17:12:05.459Z,102766.59
2019-02-14T17:14:35.856Z,102772.61
2019-02-14T17:17:06.253Z,102777.66
2019-02-14T17:19:36.680Z,102773.41
2019-02-14T17:22:07.109Z,102774.14
2019-02-14T17:24:37.529Z,102781.12
2019-02-14T17:27:07.934Z,102779.67
2019-02-14T17:29:38.316Z,102782.53
2019-02-14T17:32:08.723Z,102774.59
2019-02-14T17:34:39.106Z,102771.19
2019-02-14T17:37:09.680Z,102767.98
2019-02-14T17:39:40.075Z,102762.58
2019-02-14T17:42:10.490Z,102760.36
2019-02-14T17:44:40.891Z,102756.45
2019-02-14T17:47:11.296Z,102753.92
2019-02-14T17:49:41.717Z,102753.83
2019-02-14T17:52:12.250Z,102752.92
2019-02-14T17:54:42.651Z,102747.56
2019-02-14T17:57:13.057Z,102739.80
2019-02-14T17:59:43.450Z,102746.25
2019-02-14T18:02:14.314Z,102742.70
2019-02-14T18:04:44.795Z,102746.30
2019-02-14T18:07:15.322Z,102747.92
2019-02-14T18:09:45.758Z,102753.86
2019-02-14T18:12:16.153Z,102761.48
2019-02-14T18:14:46.560Z,102755.72
2019-02-14T18:17:16.947Z,102754.72
2019-02-14T18:19:47.702Z,102751.95
2019-02-14T18:22:18.200Z,102749.91
2019-02-14T18:24:48.593Z,102753.82
2019-02-14T18:27:18.993Z,102751.45
2019-02-14T18:29:49.395Z,102757.00
2019-02-14T18:32:19.787Z,102758.17
2019-02-14T18:34:50.193Z,102764.12
2019-02-14T18:37:20.673Z,102762.58
2019-02-14T18:39:51.114Z,102762.62
2019-02-14T18:42:22.577Z,102764.75
2019-02-14T18:44:53.088Z,102764.94
2019-02-14T18:47:23.494Z,102754.37
2019-02-14T18:49:57.663Z,102754.19
2019-02-14T18:52:25.995Z,102759.49
